Time;durP1;ratioP1;P1;durP2;ratioP2;P2;SDS_P1;SDS_P2;PMS_P1;PMS_P2;Temp;Humidity;BMP_temperature;BMP_pressure;BME280_temperature;BME280_humidity;BME280_pressure;Samples;Min_cycle;Max_cycle;Signal;HPM_P1;HPM_P2
2023/08/29 00:01:40;;;;;;;4.60;1.83;;;18.70;84.90;;;;;;4792269;29;20054;-86
2023/08/29 00:04:08;;;;;;;4.97;2.05;;;18.60;85.00;;;;;;4792015;29;20064;-86
2023/08/29 00:06:35;;;;;;;4.97;1.98;;;18.70;85.20;;;;;;4792541;29;20055;-85
2023/08/29 00:09:03;;;;;;;5.88;2.20;;;18.70;85.10;;;;;;4776843;29;20046;-85
2023/08/29 00:11:31;;;;;;;4.30;1.98;;;18.70;85.00;;;;;;4776896;29;20043;-86
2023/08/29 00:13:59;;;;;;;4.33;1.80;;;18.70;85.10;;;;;;4791677;29;20047;-86
2023/08/29 00:16:26;;;;;;;5.43;2.00;;;18.70;84.90;;;;;;4791692;29;20051;-86
2023/08/29 00:18:53;;;;;;;5.47;1.98;;;18.60;84.90;;;;;;4791774;29;20062;-86
2023/08/29 00:21:20;;;;;;;4.85;2.17;;;18.70;84.90;;;;;;4776515;29;20055;-86
2023/08/29 00:23:50;;;;;;;5.30;1.98;;;18.70;85.00;;;;;;4791377;29;20046;-86
2023/08/29 00:26:17;;;;;;;5.90;2.07;;;18.70;85.10;;;;;;4791942;29;20047;-86
2023/08/29 00:28:46;;;;;;;5.90;2.05;;;18.60;85.10;;;;;;4776709;29;20100;-86
2023/08/29 00:31:13;;;;;;;4.65;1.70;;;18.70;85.00;;;;;;4777025;29;20099;-86
2023/08/29 00:33:41;;;;;;;5.78;1.98;;;18.60;84.70;;;;;;4791270;29;20054;-86
2023/08/29 00:36:08;;;;;;;6.13;2.17;;;18.60;84.80;;;;;;4775916;29;20038;-86
2023/08/29 00:38:35;;;;;;;6.37;2.07;;;18.60;84.90;;;;;;4784096;29;20051;-86
2023/08/29 00:41:02;;;;;;;5.90;2.40;;;18.60;84.80;;;;;;4791187;29;20466;-86
2023/08/29 00:43:29;;;;;;;5.65;2.22;;;18.70;84.70;;;;;;4791045;29;20042;-86
2023/08/29 00:45:57;;;;;;;6.55;2.72;;;18.70;84.70;;;;;;4776520;29;20535;-86
2023/08/29 00:48:25;;;;;;;5.53;2.25;;;18.70;84.40;;;;;;4791562;29;20042;-86
2023/08/29 00:50:54;;;;;;;6.80;2.53;;;18.60;84.30;;;;;;4791434;29;20054;-86
2023/08/29 00:53:24;;;;;;;5.57;2.38;;;18.60;84.20;;;;;;4776464;29;20153;-86
2023/08/29 00:55:51;;;;;;;4.47;2.05;;;18.50;84.10;;;;;;4776269;29;20050;-86
2023/08/29 00:58:19;;;;;;;3.97;1.00;;;18.30;84.50;;;;;;4791694;29;20046;-86
2023/08/29 01:00:46;;;;;;;1.60;0.60;;;18.20;83.40;;;;;;4776457;29;20054;-86
2023/08/29 01:03:13;;;;;;;1.80;0.60;;;18.10;82.80;;;;;;4791196;29;20058;-86
2023/08/29 01:05:40;;;;;;;1.70;0.70;;;18.00;82.80;;;;;;4776229;29;20410;-86
2023/08/29 01:08:07;;;;;;;1.90;0.50;;;18.00;82.80;;;;;;4776212;29;20540;-86
2023/08/29 01:10:52;;;;;;;2.95;0.70;;;18.00;82.60;;;;;;4790562;29;20053;-86
2023/08/29 01:13:41;;;;;;;1.40;0.60;;;18.00;82.70;;;;;;4790949;29;20145;-86
2023/08/29 01:16:10;;;;;;;3.13;0.60;;;18.00;82.80;;;;;;4791032;29;20391;-86
2023/08/29 01:18:38;;;;;;;2.08;0.60;;;18.00;83.30;;;;;;4775769;29;20046;-86
2023/08/29 01:21:28;;;;;;;1.92;0.70;;;18.00;82.90;;;;;;4790517;29;20055;-85
2023/08/29 01:24:07;;;;;;;1.98;0.63;;;18.10;82.80;;;;;;4787699;29;20047;-86
2023/08/29 01:26:36;;;;;;;2.60;0.80;;;18.00;82.50;;;;;;4790651;29;20078;-86
2023/08/29 01:29:03;;;;;;;2.60;0.70;;;17.90;82.70;;;;;;4775839;29;20043;-86
2023/08/29 01:31:33;;;;;;;2.25;0.80;;;17.90;82.70;;;;;;4775665;29;20046;-85
2023/08/29 01:34:01;;;;;;;2.47;0.70;;;17.90;82.90;;;;;;4790578;29;20119;-85
2023/08/29 01:36:42;;;;;;;5.63;0.82;;;17.80;83.00;;;;;;4775767;29;20050;-86
2023/08/29 01:39:10;;;;;;;3.20;0.85;;;17.80;83.10;;;;;;4790276;29;20085;-85
2023/08/29 01:41:38;;;;;;;2.30;1.00;;;17.80;83.40;;;;;;4789859;29;20130;-86
2023/08/29 01:44:06;;;;;;;2.45;0.73;;;17.80;83.50;;;;;;4789501;29;20446;-86
2023/08/29 01:46:33;;;;;;;2.00;0.60;;;17.80;83.50;;;;;;4775077;29;20051;-86
2023/08/29 01:49:02;;;;;;;2.72;0.73;;;17.90;82.90;;;;;;4775390;29;20524;-86
2023/08/29 01:51:29;;;;;;;3.08;1.00;;;18.00;82.40;;;;;;4769601;30;20066;-86
2023/08/29 01:53:57;;;;;;;2.40;0.90;;;17.90;82.60;;;;;;4766103;29;20050;-86
2023/08/29 01:56:27;;;;;;;3.10;1.02;;;17.90;82.90;;;;;;4790372;29;20068;-86
2023/08/29 01:58:56;;;;;;;2.42;0.93;;;18.00;82.50;;;;;;4775160;29;20138;-86
2023/08/29 02:01:23;;;;;;;2.47;0.90;;;18.00;82.30;;;;;;4771687;30;20085;-86
2023/08/29 02:03:52;;;;;;;2.65;1.05;;;18.00;82.20;;;;;;4789842;29;20042;-86
2023/08/29 02:06:19;;;;;;;2.40;0.90;;;18.00;82.60;;;;;;4790063;29;20051;-86
2023/08/29 02:08:47;;;;;;;3.00;0.90;;;18.00;82.60;;;;;;4775365;29;20050;-86
2023/08/29 02:11:14;;;;;;;2.50;0.90;;;18.00;82.40;;;;;;4772711;29;20506;-86
2023/08/29 02:13:41;;;;;;;4.13;0.90;;;18.00;82.50;;;;;;4782281;29;20055;-86
2023/08/29 02:16:08;;;;;;;2.25;0.85;;;18.10;82.60;;;;;;4790173;29;20058;-86
2023/08/29 02:18:35;;;;;;;4.40;0.90;;;18.10;82.20;;;;;;4775153;29;20074;-86
2023/08/29 02:21:02;;;;;;;2.38;0.80;;;18.10;82.10;;;;;;4774795;29;20051;-86
2023/08/29 02:23:31;;;;;;;3.65;0.90;;;18.10;82.30;;;;;;4774778;29;20493;-86
2023/08/29 02:26:05;;;;;;;2.63;0.50;;;18.10;82.50;;;;;;4774819;29;20051;-86
2023/08/29 02:28:37;;;;;;;2.63;0.88;;;18.10;82.30;;;;;;4770539;29;20141;-86
2023/08/29 02:31:07;;;;;;;2.40;0.87;;;18.10;81.90;;;;;;4789684;29;20489;-86
2023/08/29 02:33:39;;;;;;;2.15;0.88;;;18.00;82.20;;;;;;4789700;29;20502;-85
2023/08/29 02:36:07;;;;;;;3.22;1.13;;;18.00;82.10;;;;;;4773704;29;20046;-86
2023/08/29 02:38:34;;;;;;;2.90;0.98;;;18.10;81.90;;;;;;4787550;29;20057;-86
2023/08/29 02:41:02;;;;;;;3.10;1.02;;;18.10;82.00;;;;;;4774653;29;20059;-86
2023/08/29 02:43:29;;;;;;;3.30;0.90;;;18.10;81.90;;;;;;4775031;29;20054;-86
2023/08/29 02:45:57;;;;;;;3.13;1.02;;;18.00;81.90;;;;;;4774542;29;20137;-86
2023/08/29 02:48:24;;;;;;;2.72;1.00;;;18.00;82.20;;;;;;4774656;29;20375;-85
2023/08/29 02:50:51;;;;;;;2.92;1.10;;;18.00;82.30;;;;;;4789455;29;20051;-85
2023/08/29 02:53:20;;;;;;;2.90;1.15;;;18.10;82.40;;;;;;4789350;29;20142;-85
2023/08/29 02:55:51;;;;;;;3.83;1.10;;;18.10;82.50;;;;;;4790515;29;20078;-86
2023/08/29 02:58:21;;;;;;;4.13;1.27;;;18.00;82.50;;;;;;4792914;29;20452;-86
2023/08/29 03:00:58;;;;;;;3.60;1.27;;;18.00;82.80;;;;;;4792353;29;20061;-86
2023/08/29 03:03:26;;;;;;;4.40;1.38;;;18.00;82.70;;;;;;4778087;29;20057;-85
2023/08/29 03:05:58;;;;;;;3.75;1.45;;;18.00;82.90;;;;;;4778206;29;20053;-86
2023/08/29 03:08:26;;;;;;;4.73;1.27;;;18.00;82.90;;;;;;4792576;29;20047;-86
2023/08/29 03:10:53;;;;;;;3.67;1.38;;;18.00;83.00;;;;;;4792742;29;20042;-85
2023/08/29 03:13:21;;;;;;;5.80;2.10;;;18.00;83.00;;;;;;4778064;29;20043;-86
2023/08/29 03:15:48;;;;;;;5.57;2.08;;;18.00;82.90;;;;;;4777847;29;20074;-86
2023/08/29 03:18:16;;;;;;;5.10;1.90;;;18.00;83.00;;;;;;4777987;29;20512;-86
2023/08/29 03:20:44;;;;;;;5.30;2.20;;;18.00;83.30;;;;;;4777968;29;20058;-86
2023/08/29 03:23:11;;;;;;;9.32;2.75;;;18.00;83.30;;;;;;4774733;29;20560;-85
2023/08/29 03:25:39;;;;;;;6.28;2.53;;;18.00;83.30;;;;;;4792210;29;20053;-85
2023/08/29 03:28:06;;;;;;;5.32;2.00;;;17.90;83.50;;;;;;4790715;29;20053;-85
2023/08/29 03:30:33;;;;;;;5.88;1.58;;;17.80;83.70;;;;;;4791433;29;20451;-85
2023/08/29 03:33:01;;;;;;;4.33;1.60;;;17.80;83.70;;;;;;4789507;29;20047;-85
2023/08/29 03:35:28;;;;;;;4.00;1.33;;;17.80;83.50;;;;;;4789968;29;20054;-85
2023/08/29 03:37:55;;;;;;;3.35;1.33;;;17.80;83.50;;;;;;4792082;29;20057;-85
2023/08/29 03:40:23;;;;;;;5.38;1.58;;;17.80;83.20;;;;;;4777244;29;20467;-86
2023/08/29 03:42:50;;;;;;;5.15;1.60;;;17.70;83.40;;;;;;4777203;29;20043;-85
2023/08/29 03:45:18;;;;;;;4.80;2.00;;;17.70;83.40;;;;;;4776974;29;20074;-85
2023/08/29 03:47:45;;;;;;;5.70;1.58;;;17.60;83.40;;;;;;4777261;29;20080;-85
2023/08/29 03:50:12;;;;;;;4.35;1.30;;;17.70;83.40;;;;;;4808151;29;20559;-85
2023/08/29 03:52:40;;;;;;;4.13;1.50;;;17.70;83.00;;;;;;4788412;29;20126;-85
2023/08/29 03:55:08;;;;;;;2.70;1.30;;;17.70;83.20;;;;;;4789835;29;20050;-85
2023/08/29 03:57:36;;;;;;;3.00;1.10;;;17.70;82.80;;;;;;4783724;29;20042;-85
2023/08/29 04:00:08;;;;;;;3.22;1.20;;;17.70;82.90;;;;;;4789930;29;20047;-85
2023/08/29 04:02:39;;;;;;;4.60;1.40;;;17.80;82.90;;;;;;4783692;29;20051;-85
2023/08/29 04:05:15;;;;;;;3.88;1.50;;;17.80;82.90;;;;;;4776918;29;20152;-85
2023/08/29 04:07:44;;;;;;;4.05;1.40;;;17.80;82.90;;;;;;4790825;29;20043;-85
2023/08/29 04:10:12;;;;;;;5.10;1.70;;;17.80;82.80;;;;;;4776725;29;20416;-84
2023/08/29 04:12:39;;;;;;;4.15;1.52;;;17.80;83.20;;;;;;4774752;29;20138;-85
2023/08/29 04:15:07;;;;;;;4.20;1.75;;;17.80;83.10;;;;;;4785662;29;20146;-85
2023/08/29 04:17:34;;;;;;;3.95;1.88;;;17.90;83.20;;;;;;4776739;29;20047;-85
2023/08/29 04:20:04;;;;;;;5.40;2.17;;;17.90;83.20;;;;;;4776411;29;20105;-85
2023/08/29 04:22:31;;;;;;;6.40;2.80;;;17.90;83.40;;;;;;4776563;29;20055;-84
2023/08/29 04:24:59;;;;;;;6.75;3.80;;;17.90;83.30;;;;;;4776662;29;20047;-85
2023/08/29 04:27:26;;;;;;;6.65;3.55;;;17.90;83.70;;;;;;4767277;29;20058;-85
2023/08/29 04:29:53;;;;;;;7.30;3.92;;;18.00;83.70;;;;;;4771717;29;20039;-85
2023/08/29 04:32:20;;;;;;;7.43;4.20;;;18.00;83.80;;;;;;4791716;29;20049;-85
2023/08/29 04:34:47;;;;;;;8.73;4.97;;;17.80;84.10;;;;;;4769756;29;20055;-85
2023/08/29 04:37:14;;;;;;;7.25;4.20;;;17.80;84.30;;;;;;4788240;29;20051;-84
2023/08/29 04:39:41;;;;;;;9.23;4.25;;;17.80;84.50;;;;;;4791128;29;20043;-84
2023/08/29 04:42:08;;;;;;;7.72;4.82;;;17.80;84.70;;;;;;4773507;29;20161;-85
2023/08/29 04:44:36;;;;;;;8.57;5.07;;;17.70;84.80;;;;;;4773588;29;20046;-83
2023/08/29 04:47:04;;;;;;;8.87;5.80;;;17.60;85.00;;;;;;4771261;29;20134;-85
2023/08/29 04:49:33;;;;;;;11.60;6.22;;;17.70;84.90;;;;;;4790232;29;20042;-85
2023/08/29 04:52:01;;;;;;;9.10;4.97;;;17.80;84.90;;;;;;4774208;29;20444;-84
2023/08/29 04:54:29;;;;;;;9.40;5.50;;;17.90;84.60;;;;;;4776692;29;20039;-84
2023/08/29 04:56:56;;;;;;;8.32;4.63;;;18.00;84.70;;;;;;4783162;29;20052;-85
2023/08/29 04:59:24;;;;;;;8.10;4.20;;;17.90;84.50;;;;;;4772850;29;20484;-84
2023/08/29 05:01:51;;;;;;;8.00;4.80;;;18.00;84.20;;;;;;4770485;29;20054;-85
2023/08/29 05:04:18;;;;;;;10.52;4.97;;;18.00;84.20;;;;;;4790431;29;20055;-85
2023/08/29 05:06:45;;;;;;;9.50;5.10;;;18.00;84.10;;;;;;4788156;29;20051;-85
2023/08/29 05:09:13;;;;;;;10.77;5.32;;;18.00;84.10;;;;;;4761148;29;20047;-85
2023/08/29 05:11:40;;;;;;;10.30;4.63;;;17.90;84.30;;;;;;4779953;29;20133;-85
2023/08/29 05:14:06;;;;;;;9.77;5.15;;;17.90;84.20;;;;;;4764647;30;20043;-85
2023/08/29 05:16:33;;;;;;;10.10;5.65;;;17.90;84.30;;;;;;4773662;29;20134;-85
2023/08/29 05:19:01;;;;;;;10.35;5.18;;;17.90;84.20;;;;;;4785929;29;20497;-85
2023/08/29 05:21:28;;;;;;;13.27;5.75;;;17.80;84.40;;;;;;4771270;29;20142;-85
2023/08/29 05:23:56;;;;;;;9.13;5.53;;;17.80;84.40;;;;;;4779646;29;20051;-85
2023/08/29 05:26:24;;;;;;;9.15;5.35;;;17.70;84.60;;;;;;4758317;29;20043;-85
2023/08/29 05:28:51;;;;;;;8.82;4.82;;;17.60;84.90;;;;;;4778129;29;20134;-85
2023/08/29 05:31:18;;;;;;;9.45;5.22;;;17.70;85.00;;;;;;4782675;29;20532;-85
2023/08/29 05:33:45;;;;;;;8.05;4.43;;;17.70;85.20;;;;;;4774799;29;20053;-85
2023/08/29 05:36:12;;;;;;;6.77;3.30;;;17.90;85.10;;;;;;4790216;29;20418;-85
2023/08/29 05:38:39;;;;;;;7.00;3.85;;;18.00;85.00;;;;;;4790249;29;20047;-85
2023/08/29 05:41:06;;;;;;;8.45;3.97;;;18.10;84.70;;;;;;4790104;29;20524;-85
2023/08/29 05:43:33;;;;;;;7.13;3.17;;;18.20;84.10;;;;;;4773473;29;20054;-85
2023/08/29 05:46:02;;;;;;;7.30;3.60;;;18.30;83.80;;;;;;4789810;29;20047;-85
2023/08/29 05:48:29;;;;;;;6.50;3.30;;;18.40;83.70;;;;;;4787305;29;20058;-85
2023/08/29 05:50:55;;;;;;;6.35;3.28;;;18.50;83.50;;;;;;4782619;29;20051;-85
2023/08/29 05:53:23;;;;;;;6.00;3.22;;;18.50;83.50;;;;;;4786529;29;20458;-85
2023/08/29 05:55:50;;;;;;;6.63;3.35;;;18.60;83.30;;;;;;4770871;29;20516;-85
2023/08/29 05:58:17;;;;;;;7.05;3.00;;;18.70;83.40;;;;;;4784153;29;20501;-85
2023/08/29 06:00:44;;;;;;;6.47;3.30;;;18.70;83.30;;;;;;4771241;29;20047;-85
2023/08/29 06:03:11;;;;;;;6.97;2.90;;;18.80;83.10;;;;;;4774841;29;20070;-85
2023/08/29 06:05:41;;;;;;;5.85;2.88;;;18.80;83.10;;;;;;4770906;30;20056;-85
2023/08/29 06:08:08;;;;;;;6.40;2.85;;;18.90;83.30;;;;;;4769755;29;20051;-85
2023/08/29 06:10:46;;;;;;;7.07;3.13;;;18.90;83.00;;;;;;4781801;29;20134;-85
2023/08/29 06:13:13;;;;;;;6.47;2.73;;;18.90;82.80;;;;;;4805867;29;20054;-85
2023/08/29 06:15:42;;;;;;;5.43;2.50;;;19.00;82.70;;;;;;4775257;29;20050;-86
2023/08/29 06:18:09;;;;;;;6.22;2.97;;;19.10;82.30;;;;;;4773540;29;20062;-87
2023/08/29 06:20:37;;;;;;;7.45;2.90;;;19.10;82.30;;;;;;4774334;29;20119;-84
2023/08/29 06:23:04;;;;;;;6.95;2.70;;;19.40;82.40;;;;;;4799828;29;20438;-85
2023/08/29 06:25:31;;;;;;;6.10;2.50;;;19.60;81.90;;;;;;4789251;29;20058;-85
2023/08/29 06:27:58;;;;;;;5.55;2.65;;;19.80;81.30;;;;;;4774613;29;20196;-85
2023/08/29 06:30:26;;;;;;;7.03;2.65;;;20.00;80.50;;;;;;4789568;29;20049;-85
2023/08/29 06:32:53;;;;;;;6.72;2.45;;;20.20;80.20;;;;;;4777339;29;20039;-85
2023/08/29 06:35:20;;;;;;;7.97;2.65;;;20.40;79.40;;;;;;4791156;29;20054;-85
2023/08/29 06:37:47;;;;;;;6.53;2.60;;;20.60;78.40;;;;;;4775364;29;20086;-85
2023/08/29 06:40:14;;;;;;;6.10;2.63;;;20.80;78.50;;;;;;4772738;29;20052;-85
2023/08/29 06:42:41;;;;;;;6.45;2.50;;;20.90;78.20;;;;;;4776710;29;20047;-85
2023/08/29 06:45:27;;;;;;;6.68;2.90;;;21.10;78.10;;;;;;4793177;29;20459;-85
2023/08/29 06:47:54;;;;;;;7.18;2.33;;;21.20;77.00;;;;;;4790200;29;20049;-85
2023/08/29 06:50:21;;;;;;;6.80;2.50;;;21.40;77.40;;;;;;4772632;30;20146;-85
2023/08/29 06:52:48;;;;;;;8.38;2.63;;;21.60;76.70;;;;;;4793082;29;20042;-85
2023/08/29 06:55:16;;;;;;;6.15;2.90;;;21.70;77.30;;;;;;4780185;29;20042;-85
2023/08/29 06:57:43;;;;;;;8.07;3.05;;;21.60;76.10;;;;;;4787966;30;20046;-85
2023/08/29 07:00:11;;;;;;;6.63;2.60;;;21.60;75.10;;;;;;4788934;29;20047;-84
2023/08/29 07:02:38;;;;;;;6.93;2.80;;;21.50;75.90;;;;;;4795326;29;20268;-85
2023/08/29 07:05:05;;;;;;;8.15;3.03;;;21.50;76.00;;;;;;4795198;29;20050;-84
2023/08/29 07:07:32;;;;;;;6.65;3.00;;;21.50;75.40;;;;;;4780325;29;20058;-85
2023/08/29 07:10:00;;;;;;;6.93;2.50;;;21.50;75.50;;;;;;4780100;29;20589;-85
2023/08/29 07:12:27;;;;;;;7.82;2.80;;;21.50;76.00;;;;;;4779721;29;20057;-86
2023/08/29 07:14:54;;;;;;;6.23;2.63;;;21.50;76.30;;;;;;4791391;29;20108;-85
2023/08/29 07:17:20;;;;;;;6.25;2.80;;;21.50;76.50;;;;;;4791157;29;20046;-85
2023/08/29 07:19:47;;;;;;;6.00;3.17;;;21.50;76.30;;;;;;4784995;30;20485;-85
2023/08/29 07:22:16;;;;;;;6.43;3.00;;;21.60;75.80;;;;;;4777139;30;20051;-84
2023/08/29 07:24:51;;;;;;;8.80;3.15;;;21.60;76.00;;;;;;4762343;30;20058;-85
2023/08/29 07:27:19;;;;;;;6.47;2.80;;;21.60;76.20;;;;;;4776454;30;20058;-85
2023/08/29 07:29:46;;;;;;;9.70;2.95;;;21.70;76.60;;;;;;4777057;30;20043;-85
2023/08/29 07:32:13;;;;;;;6.50;3.17;;;21.80;76.80;;;;;;4756814;30;20058;-85
2023/08/29 07:34:40;;;;;;;7.28;3.20;;;22.00;75.40;;;;;;4773834;30;20537;-85
2023/08/29 07:37:08;;;;;;;7.90;3.47;;;22.10;75.90;;;;;;4765806;30;20139;-85
2023/08/29 07:39:35;;;;;;;10.23;3.17;;;22.30;76.10;;;;;;4760566;30;20178;-85
2023/08/29 07:42:03;;;;;;;9.05;3.83;;;22.40;75.60;;;;;;4758991;30;20047;-86
2023/08/29 07:44:30;;;;;;;12.48;4.25;;;22.40;75.80;;;;;;4773845;30;20062;-85
2023/08/29 07:46:58;;;;;;;8.77;3.63;;;22.40;75.20;;;;;;4774340;30;20100;-84
2023/08/29 07:49:41;;;;;;;7.25;3.58;;;22.10;75.60;;;;;;4754355;30;20052;-84
2023/08/29 07:52:08;;;;;;;7.37;3.53;;;21.80;76.60;;;;;;4759354;30;20039;-84
2023/08/29 07:54:35;;;;;;;8.75;4.20;;;21.60;77.20;;;;;;4773879;30;20058;-84
2023/08/29 07:57:03;;;;;;;7.55;3.20;;;21.40;77.10;;;;;;4773000;30;20130;-84
2023/08/29 07:59:31;;;;;;;8.10;3.70;;;21.20;77.80;;;;;;4759252;30;20083;-83
2023/08/29 08:01:58;;;;;;;7.07;3.97;;;21.20;77.90;;;;;;4760458;30;20051;-86
2023/08/29 08:04:25;;;;;;;8.57;4.77;;;21.30;78.00;;;;;;4742747;30;20048;-84
2023/08/29 08:06:53;;;;;;;10.98;6.38;;;21.20;78.20;;;;;;4765571;30;20035;-86
2023/08/29 08:09:20;;;;;;;13.45;7.25;;;21.00;78.00;;;;;;4751843;30;20057;-86
2023/08/29 08:11:47;;;;;;;11.77;6.93;;;20.60;78.70;;;;;;4753627;30;20051;-85
2023/08/29 08:14:17;;;;;;;14.90;8.68;;;20.50;79.50;;;;;;4774019;30;20051;-86
2023/08/29 08:16:44;;;;;;;12.97;8.47;;;20.40;79.30;;;;;;4768349;30;20522;-87
2023/08/29 08:19:11;;;;;;;14.25;9.10;;;20.30;79.00;;;;;;4760560;29;20150;-86
2023/08/29 08:21:38;;;;;;;15.10;9.63;;;20.10;79.50;;;;;;4777017;29;20051;-85
2023/08/29 08:24:07;;;;;;;13.52;8.40;;;20.10;79.40;;;;;;4807735;29;20154;-85
2023/08/29 08:26:34;;;;;;;15.18;9.82;;;20.00;79.60;;;;;;4791322;29;20061;-85
2023/08/29 08:29:03;;;;;;;15.27;9.77;;;20.00;80.00;;;;;;4773756;29;20046;-85
2023/08/29 08:31:31;;;;;;;13.50;9.40;;;20.00;79.60;;;;;;4791750;29;20414;-86
2023/08/29 08:33:58;;;;;;;15.38;10.40;;;19.90;79.70;;;;;;4791433;29;20051;-85
2023/08/29 08:36:25;;;;;;;16.83;9.73;;;19.70;79.50;;;;;;4775007;29;20549;-85
2023/08/29 08:38:52;;;;;;;18.58;11.23;;;19.60;80.10;;;;;;4765799;29;20498;-85
2023/08/29 08:41:19;;;;;;;20.87;12.43;;;19.70;79.90;;;;;;4791249;29;20070;-85
2023/08/29 08:43:47;;;;;;;22.17;14.50;;;19.80;79.90;;;;;;4776199;29;20058;-86
2023/08/29 08:46:16;;;;;;;23.65;14.10;;;19.80;79.50;;;;;;4781657;29;20449;-86
2023/08/29 08:48:44;;;;;;;25.42;16.08;;;19.80;79.90;;;;;;4775242;29;20054;-84
2023/08/29 08:51:12;;;;;;;24.70;16.10;;;19.80;79.60;;;;;;4768205;30;20396;-85
2023/08/29 08:53:40;;;;;;;24.07;16.07;;;19.80;79.70;;;;;;4771874;29;20058;-85
2023/08/29 08:56:08;;;;;;;25.35;16.33;;;19.90;79.70;;;;;;4790221;29;20062;-88
2023/08/29 08:58:37;;;;;;;25.92;16.60;;;19.80;79.60;;;;;;4756738;30;20473;-87
2023/08/29 09:01:04;;;;;;;26.23;15.98;;;19.80;80.00;;;;;;4790790;29;20049;-87
2023/08/29 09:03:31;;;;;;;23.70;15.15;;;19.80;80.20;;;;;;4776560;29;20065;-87
2023/08/29 09:05:58;;;;;;;23.90;14.63;;;19.70;80.10;;;;;;4776644;29;20131;-89
2023/08/29 09:08:26;;;;;;;24.17;15.40;;;19.70;80.70;;;;;;4776156;29;20058;-87
2023/08/29 09:10:53;;;;;;;28.88;17.27;;;19.70;81.40;;;;;;4796797;29;20130;-87
2023/08/29 09:13:22;;;;;;;29.83;16.83;;;19.60;80.30;;;;;;4784086;29;20057;-86
2023/08/29 09:15:49;;;;;;;28.92;16.70;;;19.60;80.30;;;;;;4776237;29;20054;-88
2023/08/29 09:18:28;;;;;;;27.77;15.97;;;19.60;80.60;;;;;;4776282;29;20046;-84
2023/08/29 09:20:58;;;;;;;27.20;15.32;;;19.70;80.20;;;;;;4775862;29;20051;-85
2023/08/29 09:23:36;;;;;;;31.77;17.88;;;19.70;80.00;;;;;;4775988;29;20054;-88
2023/08/29 09:26:04;;;;;;;29.27;16.92;;;19.70;80.00;;;;;;4776465;29;20531;-89
2023/08/29 09:28:31;;;;;;;30.85;17.20;;;19.70;80.10;;;;;;4776324;29;20095;-88
2023/08/29 09:31:06;;;;;;;26.67;15.40;;;19.80;80.00;;;;;;4776839;29;20537;-87
2023/08/29 09:33:34;;;;;;;26.20;15.75;;;19.90;79.40;;;;;;4790958;29;20055;-86
2023/08/29 09:36:05;;;;;;;30.02;16.27;;;20.00;78.90;;;;;;4790868;29;20077;-86
2023/08/29 09:38:33;;;;;;;27.13;15.07;;;20.00;78.70;;;;;;4775612;29;20120;-87
2023/08/29 09:41:01;;;;;;;28.17;15.20;;;20.10;78.70;;;;;;4776123;29;20047;-87
2023/08/29 09:43:29;;;;;;;31.60;16.50;;;20.10;78.80;;;;;;4790711;29;20600;-88
2023/08/29 09:46:32;;;;;;;32.53;17.05;;;20.10;78.70;;;;;;4791187;29;20057;-92
2023/08/29 09:49:07;;;;;;;31.08;16.05;;;20.10;78.70;;;;;;4791390;29;20047;-87
2023/08/29 09:51:35;;;;;;;26.90;15.40;;;20.20;78.90;;;;;;4766796;30;20090;-86
2023/08/29 09:54:07;;;;;;;26.27;15.23;;;20.20;78.30;;;;;;4754640;30;20047;-86
2023/08/29 09:56:34;;;;;;;27.57;15.60;;;20.30;78.20;;;;;;4754664;30;20083;-86
2023/08/29 09:59:03;;;;;;;25.88;14.25;;;20.30;79.00;;;;;;4739951;30;20055;-86
2023/08/29 10:01:30;;;;;;;29.95;16.13;;;20.40;78.40;;;;;;4740358;30;20417;-85
2023/08/29 10:04:03;;;;;;;28.35;15.50;;;20.50;78.10;;;;;;4783168;29;20051;-86
2023/08/29 10:06:30;;;;;;;30.58;15.73;;;20.50;78.10;;;;;;4757161;30;20105;-84
2023/08/29 10:09:01;;;;;;;29.40;15.70;;;20.60;77.80;;;;;;4772357;29;20100;-88
2023/08/29 10:11:28;;;;;;;29.63;16.67;;;20.60;77.50;;;;;;4790838;29;20054;-88
2023/08/29 10:14:07;;;;;;;29.80;16.10;;;20.60;77.00;;;;;;4790842;29;20510;-88
2023/08/29 10:16:35;;;;;;;30.35;16.65;;;20.50;77.60;;;;;;4760933;30;20055;-88
2023/08/29 10:19:02;;;;;;;33.78;18.08;;;20.50;77.90;;;;;;4783422;29;20055;-90
2023/08/29 10:21:31;;;;;;;34.63;16.97;;;20.50;77.70;;;;;;4776150;29;20082;-89
2023/08/29 10:23:59;;;;;;;31.80;17.67;;;20.40;78.10;;;;;;4775967;29;20065;-88
2023/08/29 10:26:27;;;;;;;32.75;17.30;;;20.40;79.10;;;;;;4775798;29;20047;-89
2023/08/29 10:28:55;;;;;;;30.88;17.33;;;20.50;78.60;;;;;;4775800;29;20084;-88
2023/08/29 10:31:26;;;;;;;35.25;19.60;;;20.60;78.20;;;;;;4776211;29;20051;-88
2023/08/29 10:33:56;;;;;;;32.97;17.77;;;20.60;79.00;;;;;;4784745;30;20086;-89
2023/08/29 10:36:25;;;;;;;34.25;18.00;;;20.60;78.60;;;;;;4769764;29;20141;-88
2023/08/29 10:38:52;;;;;;;34.50;19.27;;;20.60;78.50;;;;;;4775766;29;20058;-89
2023/08/29 10:41:20;;;;;;;35.33;19.52;;;20.60;78.40;;;;;;4775409;29;20051;-89
2023/08/29 10:43:49;;;;;;;33.80;19.13;;;20.60;78.80;;;;;;4776160;29;20158;-89
2023/08/29 10:46:16;;;;;;;33.67;18.50;;;20.60;78.70;;;;;;4775374;29;20051;-89
2023/08/29 10:48:43;;;;;;;34.38;19.52;;;20.60;78.10;;;;;;4775840;29;20104;-90
2023/08/29 10:51:13;;;;;;;35.92;19.35;;;20.40;78.30;;;;;;4790376;29;20104;-88
2023/08/29 10:53:48;;;;;;;35.90;19.42;;;20.20;78.70;;;;;;4773054;29;20043;-88
2023/08/29 10:56:17;;;;;;;42.05;20.42;;;20.00;79.50;;;;;;4790525;29;20043;-88
2023/08/29 10:58:47;;;;;;;44.57;20.73;;;19.80;80.20;;;;;;4775274;29;20054;-89
2023/08/29 11:01:24;;;;;;;38.55;19.85;;;19.80;80.30;;;;;;4785424;30;20047;-88
2023/08/29 11:03:51;;;;;;;38.90;20.33;;;19.60;80.60;;;;;;4773307;29;20185;-88
2023/08/29 11:06:21;;;;;;;38.50;19.65;;;19.60;81.20;;;;;;4775672;29;20050;-89
2023/08/29 11:08:49;;;;;;;41.53;20.83;;;19.60;81.20;;;;;;4790618;29;20051;-88
2023/08/29 11:11:18;;;;;;;40.30;20.27;;;19.60;80.60;;;;;;4775888;29;20051;-89
2023/08/29 11:14:08;;;;;;;38.10;20.00;;;19.60;80.70;;;;;;4775683;29;20150;-90
2023/08/29 11:16:56;;;;;;;41.05;20.42;;;19.60;80.80;;;;;;4776159;29;20158;-90
2023/08/29 11:19:24;;;;;;;42.67;21.50;;;19.60;80.60;;;;;;4776017;30;20391;-89
2023/08/29 11:21:52;;;;;;;39.28;20.50;;;19.50;80.90;;;;;;4761042;30;20078;-91
2023/08/29 11:24:21;;;;;;;41.43;20.37;;;19.50;80.80;;;;;;4761136;30;20071;-89
2023/08/29 11:26:47;;;;;;;41.42;19.73;;;19.40;80.70;;;;;;4760777;30;20055;-89
2023/08/29 11:29:15;;;;;;;42.58;21.23;;;19.30;80.80;;;;;;4761190;30;20058;-89
2023/08/29 11:31:43;;;;;;;46.67;22.65;;;19.20;81.40;;;;;;4761050;30;20057;-90
2023/08/29 11:34:20;;;;;;;40.90;21.20;;;19.30;81.50;;;;;;4760839;30;20517;-89
2023/08/29 11:36:50;;;;;;;45.73;22.67;;;19.30;81.40;;;;;;4760884;30;20047;-88
2023/08/29 11:39:20;;;;;;;49.40;24.17;;;19.30;81.10;;;;;;4760895;30;20514;-90
2023/08/29 11:41:47;;;;;;;46.42;22.67;;;19.30;81.60;;;;;;4760748;30;20191;-91
2023/08/29 11:44:34;;;;;;;45.70;22.77;;;19.20;81.80;;;;;;4763544;30;20108;-91
2023/08/29 11:47:23;;;;;;;48.97;23.08;;;19.10;81.40;;;;;;4763982;30;20039;-92
2023/08/29 11:49:53;;;;;;;50.57;23.63;;;19.10;81.40;;;;;;4760906;30;20058;-92
2023/08/29 11:52:22;;;;;;;48.47;23.40;;;19.00;81.80;;;;;;4760903;30;20510;-91
2023/08/29 11:54:54;;;;;;;47.47;22.35;;;19.10;81.80;;;;;;4760733;30;20150;-91
2023/08/29 11:57:21;;;;;;;58.03;25.52;;;19.10;81.60;;;;;;4760877;30;20149;-92
2023/08/29 11:59:51;;;;;;;55.13;25.63;;;19.10;81.40;;;;;;4774814;30;20061;-88
2023/08/29 12:02:23;;;;;;;59.77;26.53;;;19.10;81.60;;;;;;4774610;30;20055;-89
2023/08/29 12:04:55;;;;;;;58.33;26.20;;;19.00;81.90;;;;;;4775230;30;20079;-89
2023/08/29 12:07:23;;;;;;;57.35;26.10;;;19.00;82.00;;;;;;4775012;30;20051;-89
2023/08/29 12:09:52;;;;;;;62.67;27.20;;;19.00;82.10;;;;;;4760714;30;20051;-89
2023/08/29 12:12:41;;;;;;;55.47;25.98;;;19.00;82.10;;;;;;4774853;30;20058;-89
2023/08/29 12:15:10;;;;;;;59.10;27.40;;;18.90;82.20;;;;;;4775335;30;20084;-89
2023/08/29 12:17:43;;;;;;;66.10;26.63;;;18.90;82.60;;;;;;4760127;30;20579;-89
2023/08/29 12:25:01;;;;;;;51.22;23.27;;;18.80;82.80;;;;;;4808696;29;20107;-89
2023/08/29 12:27:28;;;;;;;59.60;22.15;;;18.80;82.70;;;;;;4777520;29;20413;-89
2023/08/29 12:29:55;;;;;;;55.40;23.90;;;18.80;82.40;;;;;;4777317;29;20060;-88
2023/08/29 12:32:26;;;;;;;57.28;22.35;;;18.70;82.70;;;;;;4777675;29;20050;-88
2023/08/29 12:34:57;;;;;;;58.33;23.48;;;18.60;83.30;;;;;;4777565;29;20050;-89
2023/08/29 12:37:24;;;;;;;51.78;22.58;;;18.50;83.60;;;;;;4777402;29;20108;-89
2023/08/29 12:39:52;;;;;;;56.65;24.08;;;18.60;83.60;;;;;;4777415;29;20130;-88
2023/08/29 12:42:19;;;;;;;55.40;23.50;;;18.70;83.30;;;;;;4766445;29;20062;-87
2023/08/29 12:44:46;;;;;;;51.22;23.17;;;18.70;82.80;;;;;;4790011;29;20070;-87
2023/08/29 12:47:13;;;;;;;53.67;22.95;;;18.60;83.20;;;;;;4759643;29;20105;-88
2023/08/29 12:49:40;;;;;;;47.28;21.42;;;18.60;83.50;;;;;;4776919;29;20061;-88
2023/08/29 12:52:07;;;;;;;55.38;23.42;;;18.80;83.40;;;;;;4768540;30;20044;-87
2023/08/29 12:54:35;;;;;;;52.17;22.73;;;18.80;82.70;;;;;;4763445;30;20056;-87